College Park, South Carolina
Current Conditions -  °F | °C
As of 3:56 PM on Friday 31 Oct 2014 (Local Time) from KCHS Reporting Station
Few Clouds Few Clouds  
Wind Chill: 69°   Ceiling: Unl
Heat Index: 69°   Visibility: 10mi
Dew Point: 42°   Wind: 8mph
Humidity: 38%   Direction: 20°NNE
Pressure: 29.8"   Gusts: NA
Location:  32.9859°N, 80.1166°W
Report Text: KCHS 311956Z 02007KT 10SM FEW060 21/06 A2980 RMK AO2 SLP089 T02060056
Loading
Personal Weather Stations






























Interactive Weather Map
Tropical Storm Tracking
New forecast layout! Learn more

10-Day Weather Forecast

Advertisements
Track Severe Weather on mobile